createdAt,value
2018-03-21T00:00:08.037Z,14.30
2018-03-21T00:00:39.797Z,14.30
2018-03-21T00:01:11.585Z,14.30
2018-03-21T00:01:43.327Z,14.20
2018-03-21T00:02:16.244Z,14.30
2018-03-21T00:02:47.987Z,14.20
2018-03-21T00:03:19.740Z,14.20
2018-03-21T00:03:51.520Z,14.20
2018-03-21T00:04:24.032Z,14.20
2018-03-21T00:04:55.780Z,14.20
2018-03-21T00:05:27.531Z,14.20
2018-03-21T00:05:59.468Z,14.20
2018-03-21T00:06:31.227Z,14.20
2018-03-21T00:07:03.005Z,14.30
2018-03-21T00:07:34.930Z,14.30
2018-03-21T00:08:06.677Z,14.30
2018-03-21T00:08:38.482Z,14.30
2018-03-21T00:09:10.974Z,14.30
2018-03-21T00:09:42.722Z,14.30
2018-03-21T00:10:15.991Z,14.30
2018-03-21T00:10:47.745Z,14.30
2018-03-21T00:11:19.504Z,14.30
2018-03-21T00:11:51.249Z,14.30
2018-03-21T00:12:23.025Z,14.20
2018-03-21T00:12:54.780Z,14.20
2018-03-21T00:13:26.533Z,14.30
2018-03-21T00:13:58.293Z,14.20
2018-03-21T00:14:30.020Z,14.20
2018-03-21T00:15:01.769Z,14.30
2018-03-21T00:15:33.544Z,14.20
2018-03-21T00:16:05.295Z,14.30
2018-03-21T00:16:37.054Z,14.30
2018-03-21T00:17:08.799Z,14.30
2018-03-21T00:17:40.552Z,14.30
2018-03-21T00:18:13.063Z,14.30
2018-03-21T00:18:44.835Z,14.20
2018-03-21T00:19:16.553Z,14.20
2018-03-21T00:19:48.299Z,14.20
2018-03-21T00:20:20.034Z,14.20
2018-03-21T00:20:51.777Z,14.20
2018-03-21T00:21:23.516Z,14.20
2018-03-21T00:21:55.265Z,14.20
2018-03-21T00:22:27.015Z,14.20
2018-03-21T00:22:58.770Z,14.30
2018-03-21T00:23:30.620Z,14.20
2018-03-21T00:24:02.377Z,14.20
2018-03-21T00:24:34.170Z,14.20
2018-03-21T00:25:06.077Z,14.20
2018-03-21T00:25:37.808Z,14.20
2018-03-21T00:26:09.617Z,14.20
2018-03-21T00:26:41.443Z,14.30
2018-03-21T00:27:13.976Z,14.30
2018-03-21T00:27:45.729Z,14.30
2018-03-21T00:28:17.691Z,14.30
2018-03-21T00:28:49.437Z,14.30
2018-03-21T00:29:21.954Z,14.40
2018-03-21T00:29:53.836Z,14.30
2018-03-21T00:30:25.737Z,14.40
2018-03-21T00:30:58.222Z,14.40
2018-03-21T00:31:29.978Z,14.40
2018-03-21T00:32:01.741Z,14.40
2018-03-21T00:32:33.759Z,14.40
2018-03-21T00:33:05.497Z,14.40
2018-03-21T00:33:37.258Z,14.30
2018-03-21T00:34:08.994Z,14.30
2018-03-21T00:34:40.740Z,14.30
2018-03-21T00:35:12.684Z,14.30
2018-03-21T00:35:44.454Z,14.30
2018-03-21T00:36:16.209Z,14.30
2018-03-21T00:36:47.964Z,14.30
2018-03-21T00:37:20.469Z,14.30
2018-03-21T00:37:52.206Z,14.30
2018-03-21T00:38:24.009Z,14.40
2018-03-21T00:38:55.795Z,14.40
2018-03-21T00:39:27.534Z,14.40
2018-03-21T00:39:59.270Z,14.30
2018-03-21T00:40:31.023Z,14.40
2018-03-21T00:41:02.760Z,14.40
2018-03-21T00:41:34.505Z,14.40
2018-03-21T00:42:06.269Z,14.40
2018-03-21T00:42:38.024Z,14.40
2018-03-21T00:43:09.777Z,14.40
2018-03-21T00:43:41.524Z,14.40
2018-03-21T00:44:13.258Z,14.40
2018-03-21T00:44:45.009Z,14.30
2018-03-21T00:45:16.781Z,14.30
2018-03-21T00:45:48.535Z,14.30
2018-03-21T00:46:21.040Z,14.30
2018-03-21T00:46:52.790Z,14.30
2018-03-21T00:47:24.587Z,14.30
2018-03-21T00:47:56.475Z,14.30
2018-03-21T00:48:28.298Z,14.30
2018-03-21T00:49:00.796Z,14.40
2018-03-21T00:49:32.604Z,14.30
2018-03-21T00:50:05.299Z,14.30
2018-03-21T00:50:37.059Z,14.30
2018-03-21T00:51:09.012Z,14.40
2018-03-21T00:51:40.756Z,14.30
2018-03-21T00:52:12.498Z,14.30
2018-03-21T00:52:44.243Z,14.30
2018-03-21T00:53:16.001Z,14.40
2018-03-21T00:53:47.774Z,14.40
2018-03-21T00:54:20.291Z,14.40
2018-03-21T00:54:52.243Z,14.40
2018-03-21T00:55:24.004Z,14.40
2018-03-21T00:55:55.967Z,14.40
2018-03-21T00:56:27.758Z,14.40
2018-03-21T00:56:59.509Z,14.40
2018-03-21T00:57:31.245Z,14.40
2018-03-21T00:58:02.979Z,14.40
2018-03-21T00:58:34.737Z,14.40
2018-03-21T00:59:06.479Z,14.40
2018-03-21T00:59:38.222Z,14.40
2018-03-21T01:00:09.967Z,14.40
2018-03-21T01:00:41.714Z,14.40
2018-03-21T01:01:13.464Z,14.40
2018-03-21T01:01:45.215Z,14.30
2018-03-21T01:02:16.965Z,14.30
2018-03-21T01:02:48.919Z,14.40
2018-03-21T01:03:20.702Z,14.40
2018-03-21T01:03:52.544Z,14.40
2018-03-21T01:04:24.297Z,14.40
2018-03-21T01:04:56.798Z,14.40
2018-03-21T01:05:28.543Z,14.40
2018-03-21T01:06:00.298Z,14.50
2018-03-21T01:06:32.043Z,14.40
2018-03-21T01:07:03.796Z,14.40
2018-03-21T01:07:35.546Z,14.40
2018-03-21T01:08:07.288Z,14.40
2018-03-21T01:08:39.033Z,14.40
2018-03-21T01:09:10.807Z,14.40
2018-03-21T01:09:42.552Z,14.40
2018-03-21T01:10:14.295Z,14.40
2018-03-21T01:10:46.044Z,14.40
2018-03-21T01:11:18.558Z,14.40
2018-03-21T01:11:50.299Z,14.40
2018-03-21T01:12:22.046Z,14.40
2018-03-21T01:12:53.785Z,14.40
2018-03-21T01:13:25.582Z,14.30
2018-03-21T01:13:57.536Z,14.30
2018-03-21T01:14:30.046Z,14.30
2018-03-21T01:15:01.786Z,14.30
2018-03-21T01:15:33.523Z,14.30
2018-03-21T01:16:05.280Z,14.30
2018-03-21T01:16:37.040Z,14.30
2018-03-21T01:17:08.781Z,14.30
2018-03-21T01:17:40.524Z,14.30
2018-03-21T01:18:12.293Z,14.30
2018-03-21T01:18:44.035Z,14.30
2018-03-21T01:19:15.794Z,14.30
2018-03-21T01:19:47.546Z,14.30
2018-03-21T01:20:19.292Z,14.30
2018-03-21T01:20:51.252Z,14.30
2018-03-21T01:21:23.759Z,14.30
2018-03-21T01:21:55.551Z,14.30
2018-03-21T01:22:28.062Z,14.30
2018-03-21T01:22:59.815Z,14.30
2018-03-21T01:23:31.592Z,14.30
2018-03-21T01:24:04.105Z,14.30
2018-03-21T01:24:36.050Z,14.30
2018-03-21T01:25:08.533Z,14.30
2018-03-21T01:25:40.280Z,14.30
2018-03-21T01:26:12.034Z,14.30
2018-03-21T01:26:43.805Z,14.30
2018-03-21T01:27:15.548Z,14.40
2018-03-21T01:27:48.120Z,14.40
2018-03-21T01:28:20.631Z,14.40
2018-03-21T01:28:52.372Z,14.40
2018-03-21T01:29:24.123Z,14.40
2018-03-21T01:29:55.874Z,14.40
2018-03-21T01:30:27.608Z,14.40
2018-03-21T01:30:59.397Z,14.40
2018-03-21T01:31:31.150Z,14.40
2018-03-21T01:32:02.881Z,14.40
2018-03-21T01:32:34.651Z,14.40
2018-03-21T01:33:06.384Z,14.40
2018-03-21T01:33:38.901Z,14.40
2018-03-21T01:34:10.653Z,14.40
2018-03-21T01:34:42.406Z,14.40
2018-03-21T01:35:14.158Z,14.40
2018-03-21T01:35:45.910Z,14.40
2018-03-21T01:36:17.644Z,14.40
2018-03-21T01:36:49.397Z,14.40
2018-03-21T01:37:21.142Z,14.40
2018-03-21T01:37:53.229Z,14.40
2018-03-21T01:38:25.023Z,14.40
2018-03-21T01:38:56.784Z,14.40
2018-03-21T01:39:28.539Z,14.40
2018-03-21T01:40:01.048Z,14.40
2018-03-21T01:40:32.813Z,14.40
2018-03-21T01:41:04.553Z,14.40
2018-03-21T01:41:36.304Z,14.30
2018-03-21T01:42:08.112Z,14.40
2018-03-21T01:42:39.848Z,14.40
2018-03-21T01:43:11.623Z,14.40
2018-03-21T01:43:43.374Z,14.40
2018-03-21T01:44:15.155Z,14.40
2018-03-21T01:44:47.088Z,14.50
2018-03-21T01:45:20.376Z,14.40
2018-03-21T01:45:52.244Z,14.40
2018-03-21T01:46:24.759Z,14.50
2018-03-21T01:46:56.510Z,14.50
2018-03-21T01:47:28.277Z,14.50
2018-03-21T01:48:00.030Z,14.50
2018-03-21T01:48:31.765Z,14.40
2018-03-21T01:49:05.027Z,14.40
2018-03-21T01:49:36.976Z,14.40
2018-03-21T01:50:08.723Z,14.40
2018-03-21T01:50:40.483Z,14.40
2018-03-21T01:51:12.236Z,14.40
2018-03-21T01:51:43.997Z,14.40
2018-03-21T01:52:16.513Z,14.40
2018-03-21T01:52:48.265Z,14.30
2018-03-21T01:53:20.036Z,14.40
2018-03-21T01:53:51.778Z,14.30
2018-03-21T01:54:23.522Z,14.30
2018-03-21T01:54:55.252Z,14.30
2018-03-21T01:55:27.005Z,14.30
2018-03-21T01:55:58.780Z,14.30
2018-03-21T01:56:30.747Z,14.30
2018-03-21T01:57:02.628Z,14.40
2018-03-21T01:57:34.373Z,14.40
2018-03-21T01:58:06.117Z,14.40
2018-03-21T01:58:37.868Z,14.30
2018-03-21T01:59:09.607Z,14.30
2018-03-21T01:59:41.348Z,14.30
2018-03-21T02:00:13.127Z,14.30
2018-03-21T02:00:45.728Z,14.30
2018-03-21T02:01:17.468Z,14.30
2018-03-21T02:01:49.219Z,14.30
2018-03-21T02:02:20.967Z,14.30
2018-03-21T02:02:52.718Z,14.30
2018-03-21T02:03:24.475Z,14.30
2018-03-21T02:03:56.228Z,14.30
2018-03-21T02:04:27.981Z,14.30
2018-03-21T02:04:59.726Z,14.30
2018-03-21T02:05:31.478Z,14.30
2018-03-21T02:06:03.235Z,14.30
2018-03-21T02:06:34.969Z,14.30
2018-03-21T02:07:06.719Z,14.30
2018-03-21T02:07:38.469Z,14.30
2018-03-21T02:08:10.982Z,14.30
2018-03-21T02:08:42.724Z,14.30
2018-03-21T02:09:14.467Z,14.30
2018-03-21T02:09:46.417Z,14.40
2018-03-21T02:10:18.182Z,14.40
2018-03-21T02:10:49.925Z,14.40
2018-03-21T02:11:21.674Z,14.40
2018-03-21T02:11:53.419Z,14.40
2018-03-21T02:12:25.156Z,14.40
2018-03-21T02:12:56.915Z,14.40
2018-03-21T02:13:28.657Z,14.40
2018-03-21T02:14:00.420Z,14.40
2018-03-21T02:14:32.169Z,14.40
2018-03-21T02:15:03.891Z,14.40
2018-03-21T02:15:35.656Z,14.40
2018-03-21T02:16:07.388Z,14.40
2018-03-21T02:16:39.132Z,14.40
2018-03-21T02:17:10.901Z,14.30
2018-03-21T02:17:43.410Z,14.40
2018-03-21T02:18:15.173Z,14.40
2018-03-21T02:18:46.908Z,14.50
2018-03-21T02:19:18.682Z,14.50
2018-03-21T02:19:50.424Z,14.50
2018-03-21T02:20:22.173Z,14.50
2018-03-21T02:20:54.674Z,14.50
2018-03-21T02:21:26.523Z,14.50
2018-03-21T02:21:58.254Z,14.50
2018-03-21T02:22:29.996Z,14.40
2018-03-21T02:23:01.738Z,14.40
2018-03-21T02:23:33.506Z,14.40
2018-03-21T02:24:05.292Z,14.40
2018-03-21T02:24:37.009Z,14.40
2018-03-21T02:25:08.780Z,14.40
2018-03-21T02:25:40.517Z,14.40
2018-03-21T02:26:12.266Z,14.50
2018-03-21T02:26:44.257Z,14.50
2018-03-21T02:27:16.001Z,14.50
2018-03-21T02:27:47.762Z,14.60
2018-03-21T02:28:19.515Z,14.60
2018-03-21T02:28:51.281Z,14.50
2018-03-21T02:29:23.266Z,14.50
2018-03-21T02:29:55.022Z,14.50
2018-03-21T02:30:27.780Z,14.40
2018-03-21T02:30:59.498Z,14.40
2018-03-21T02:31:31.243Z,14.40
2018-03-21T02:32:03.018Z,14.40
2018-03-21T02:32:34.753Z,14.40
2018-03-21T02:33:06.524Z,14.40
2018-03-21T02:33:38.265Z,14.40
2018-03-21T02:34:10.005Z,14.40
2018-03-21T02:34:41.970Z,14.40
2018-03-21T02:35:14.828Z,14.50
2018-03-21T02:35:46.699Z,14.50
2018-03-21T02:36:18.548Z,14.40
2018-03-21T02:36:50.717Z,14.40
2018-03-21T02:37:22.520Z,14.40
2018-03-21T02:37:55.076Z,14.40
2018-03-21T02:38:26.983Z,14.40
2018-03-21T02:38:58.734Z,14.40
2018-03-21T02:39:30.484Z,14.40
2018-03-21T02:40:02.394Z,14.40
2018-03-21T02:40:34.909Z,14.40
2018-03-21T02:41:06.739Z,14.40
2018-03-21T02:41:38.527Z,14.40
2018-03-21T02:42:10.256Z,14.40
2018-03-21T02:42:42.152Z,14.40
2018-03-21T02:43:14.208Z,14.40
2018-03-21T02:43:46.778Z,14.40
2018-03-21T02:44:19.357Z,14.40
2018-03-21T02:44:52.100Z,14.40
2018-03-21T02:45:24.668Z,14.40
2018-03-21T02:45:57.248Z,14.40
2018-03-21T02:46:29.057Z,14.40
2018-03-21T02:47:00.815Z,14.50
2018-03-21T02:47:33.368Z,14.50
2018-03-21T02:48:05.137Z,14.50
2018-03-21T02:48:37.655Z,14.50
2018-03-21T02:49:09.423Z,14.50
2018-03-21T02:49:41.169Z,14.50
2018-03-21T02:50:12.924Z,14.50
2018-03-21T02:50:45.446Z,14.50
2018-03-21T02:51:17.229Z,14.50
2018-03-21T02:51:49.770Z,14.50
2018-03-21T02:52:21.711Z,14.50
2018-03-21T02:52:53.448Z,14.50
2018-03-21T02:53:25.204Z,14.50
2018-03-21T02:53:56.945Z,14.50
2018-03-21T02:54:28.793Z,14.40
2018-03-21T02:55:00.579Z,14.40
2018-03-21T02:55:33.948Z,14.40
2018-03-21T02:56:05.747Z,14.40
2018-03-21T02:56:37.622Z,14.40
2018-03-21T02:57:09.544Z,14.40
2018-03-21T02:57:41.375Z,14.40
2018-03-21T02:58:14.097Z,14.40
2018-03-21T02:58:45.839Z,14.40
2018-03-21T02:59:18.399Z,14.40
2018-03-21T02:59:50.473Z,14.40
2018-03-21T03:00:23.177Z,14.40
2018-03-21T03:00:54.987Z,14.40
2018-03-21T03:01:26.748Z,14.40
2018-03-21T03:01:59.626Z,14.40
2018-03-21T03:02:31.483Z,14.40
2018-03-21T03:03:03.320Z,14.40
2018-03-21T03:03:35.166Z,14.40
2018-03-21T03:04:07.692Z,14.40
2018-03-21T03:04:39.508Z,14.40
2018-03-21T03:05:11.283Z,14.40
2018-03-21T03:05:43.796Z,14.40
2018-03-21T03:06:15.545Z,14.40
2018-03-21T03:06:47.348Z,14.40
2018-03-21T03:07:19.855Z,14.40
2018-03-21T03:07:51.684Z,14.40
2018-03-21T03:08:23.432Z,14.40
2018-03-21T03:08:55.224Z,14.40
2018-03-21T03:09:26.993Z,14.30
2018-03-21T03:09:59.700Z,14.30
2018-03-21T03:10:31.438Z,14.30
2018-03-21T03:11:03.247Z,14.30
2018-03-21T03:11:35.763Z,14.30
2018-03-21T03:12:07.551Z,14.30
2018-03-21T03:12:40.118Z,14.30
2018-03-21T03:13:12.632Z,14.30
2018-03-21T03:13:44.371Z,14.30
2018-03-21T03:14:16.116Z,14.30
2018-03-21T03:14:47.918Z,14.30
2018-03-21T03:15:20.484Z,14.30
2018-03-21T03:15:53.145Z,14.20
2018-03-21T03:16:25.643Z,14.20
2018-03-21T03:16:57.459Z,14.20
2018-03-21T03:17:29.957Z,14.20
2018-03-21T03:18:01.707Z,14.20
2018-03-21T03:18:33.504Z,14.30
2018-03-21T03:19:06.037Z,14.30
2018-03-21T03:19:37.764Z,14.30
2018-03-21T03:20:09.803Z,14.30
2018-03-21T03:20:41.544Z,14.30
2018-03-21T03:21:13.515Z,14.30
2018-03-21T03:21:45.621Z,14.30
2018-03-21T03:22:17.514Z,14.30
2018-03-21T03:22:49.421Z,14.30
2018-03-21T03:23:21.841Z,14.30
2018-03-21T03:23:54.673Z,14.40
2018-03-21T03:24:26.524Z,14.30
2018-03-21T03:24:58.457Z,14.30
2018-03-21T03:25:30.949Z,14.30
2018-03-21T03:26:02.719Z,14.30
2018-03-21T03:26:34.462Z,14.30
2018-03-21T03:27:06.209Z,14.30
2018-03-21T03:27:37.947Z,14.40
2018-03-21T03:28:09.690Z,14.30
2018-03-21T03:28:41.427Z,14.30
2018-03-21T03:29:13.275Z,14.30
2018-03-21T03:29:45.009Z,14.20
2018-03-21T03:30:16.806Z,14.30
2018-03-21T03:30:49.371Z,14.30
2018-03-21T03:31:22.155Z,14.30
2018-03-21T03:31:53.887Z,14.30
2018-03-21T03:32:25.643Z,14.30
2018-03-21T03:32:57.412Z,14.30
2018-03-21T03:33:29.164Z,14.30
2018-03-21T03:34:00.915Z,14.30
2018-03-21T03:34:32.645Z,14.30
2018-03-21T03:35:04.416Z,14.30
2018-03-21T03:35:36.173Z,14.30
2018-03-21T03:36:07.919Z,14.30
2018-03-21T03:36:40.520Z,14.20
2018-03-21T03:37:12.309Z,14.30
2018-03-21T03:37:44.045Z,14.20
2018-03-21T03:38:16.075Z,14.20
2018-03-21T03:38:47.779Z,14.30
2018-03-21T03:39:20.363Z,14.30
2018-03-21T03:39:52.164Z,14.30
2018-03-21T03:40:23.966Z,14.30
2018-03-21T03:40:55.804Z,14.30
2018-03-21T03:41:27.549Z,14.30
2018-03-21T03:41:59.301Z,14.30
2018-03-21T03:42:31.885Z,14.30
2018-03-21T03:43:03.632Z,14.30
2018-03-21T03:43:35.451Z,14.30
2018-03-21T03:44:07.992Z,14.30
2018-03-21T03:44:40.532Z,14.30
2018-03-21T03:45:13.045Z,14.20
2018-03-21T03:45:44.783Z,14.20
2018-03-21T03:46:16.663Z,14.20
2018-03-21T03:46:48.411Z,14.30
2018-03-21T03:47:20.144Z,14.20
2018-03-21T03:47:51.893Z,14.20
2018-03-21T03:48:23.638Z,14.20
2018-03-21T03:48:55.376Z,14.30
2018-03-21T03:49:27.178Z,14.30
2018-03-21T03:49:59.738Z,14.20
2018-03-21T03:50:31.468Z,14.30
2018-03-21T03:51:03.984Z,14.30
2018-03-21T03:51:35.726Z,14.30
2018-03-21T03:52:07.489Z,14.30
2018-03-21T03:52:39.240Z,14.30
2018-03-21T03:53:10.988Z,14.30
2018-03-21T03:53:44.247Z,14.30
2018-03-21T03:54:16.020Z,14.30
2018-03-21T03:54:47.760Z,14.40
2018-03-21T03:55:19.504Z,14.40
2018-03-21T03:55:51.256Z,14.40
2018-03-21T03:56:23.806Z,14.40
2018-03-21T03:56:55.557Z,14.30
2018-03-21T03:57:27.299Z,14.40
2018-03-21T03:57:59.043Z,14.30
2018-03-21T03:58:30.792Z,14.30
2018-03-21T03:59:02.546Z,14.40
2018-03-21T03:59:35.048Z,14.40
2018-03-21T04:00:06.828Z,14.30
2018-03-21T04:00:38.580Z,14.40
2018-03-21T04:01:10.324Z,14.40
2018-03-21T04:01:42.105Z,14.40
2018-03-21T04:02:13.856Z,14.40
2018-03-21T04:02:45.597Z,14.40
2018-03-21T04:03:17.413Z,14.50
2018-03-21T04:03:49.147Z,14.40
2018-03-21T04:04:21.656Z,14.40
2018-03-21T04:04:53.429Z,14.40
2018-03-21T04:05:25.192Z,14.40
2018-03-21T04:05:57.721Z,14.30
2018-03-21T04:06:29.464Z,14.30
2018-03-21T04:07:01.204Z,14.30
2018-03-21T04:07:32.953Z,14.30
2018-03-21T04:08:04.702Z,14.30
2018-03-21T04:08:36.438Z,14.30
2018-03-21T04:09:08.183Z,14.40
2018-03-21T04:09:39.935Z,14.40
2018-03-21T04:10:11.757Z,14.40
2018-03-21T04:10:43.501Z,14.40
2018-03-21T04:11:15.260Z,14.40
2018-03-21T04:11:47.007Z,14.40
2018-03-21T04:12:18.747Z,14.40
2018-03-21T04:12:50.511Z,14.40
2018-03-21T04:13:22.297Z,14.40
2018-03-21T04:13:54.807Z,14.40
2018-03-21T04:14:26.547Z,14.40
2018-03-21T04:14:58.312Z,14.40
2018-03-21T04:15:30.058Z,14.40
2018-03-21T04:16:01.797Z,14.40
2018-03-21T04:16:33.552Z,14.40
2018-03-21T04:17:05.312Z,14.30
2018-03-21T04:17:37.091Z,14.40
2018-03-21T04:18:08.844Z,14.40
2018-03-21T04:18:40.592Z,14.40
2018-03-21T04:19:12.361Z,14.40
2018-03-21T04:19:44.116Z,14.40
2018-03-21T04:20:15.855Z,14.40
2018-03-21T04:20:47.603Z,14.40
2018-03-21T04:21:19.344Z,14.40
2018-03-21T04:21:51.157Z,14.40
2018-03-21T04:22:22.900Z,14.40
2018-03-21T04:22:54.645Z,14.30
2018-03-21T04:23:26.389Z,14.40
2018-03-21T04:23:58.124Z,14.40
2018-03-21T04:24:29.910Z,14.40
2018-03-21T04:25:01.848Z,14.40
2018-03-21T04:25:33.597Z,14.40
2018-03-21T04:26:05.353Z,14.30
2018-03-21T04:26:37.117Z,14.30
2018-03-21T04:27:08.851Z,14.30
2018-03-21T04:27:40.608Z,14.30
2018-03-21T04:28:12.610Z,14.30
2018-03-21T04:28:44.355Z,14.30
2018-03-21T04:29:16.121Z,14.30
2018-03-21T04:29:47.864Z,14.30
2018-03-21T04:30:19.613Z,14.40
2018-03-21T04:30:51.366Z,14.40
2018-03-21T04:31:23.096Z,14.40
2018-03-21T04:31:54.856Z,14.40
2018-03-21T04:32:27.397Z,14.40
2018-03-21T04:32:59.141Z,14.40
2018-03-21T04:33:30.883Z,14.40
2018-03-21T04:34:02.664Z,14.40
2018-03-21T04:34:34.409Z,14.40
2018-03-21T04:35:06.158Z,14.40
2018-03-21T04:35:37.930Z,14.50
2018-03-21T04:36:09.841Z,14.50
2018-03-21T04:36:41.582Z,14.50
2018-03-21T04:37:13.323Z,14.50
2018-03-21T04:37:45.065Z,14.40
2018-03-21T04:38:16.812Z,14.40
2018-03-21T04:38:48.557Z,14.40
2018-03-21T04:39:20.302Z,14.40
2018-03-21T04:39:52.060Z,14.40
2018-03-21T04:40:24.573Z,14.40
2018-03-21T04:40:56.324Z,14.40
2018-03-21T04:41:28.089Z,14.40
2018-03-21T04:41:59.836Z,14.40
2018-03-21T04:42:31.792Z,14.40
2018-03-21T04:43:03.532Z,14.40
2018-03-21T04:43:35.582Z,14.40
2018-03-21T04:44:07.324Z,14.40
2018-03-21T04:44:39.064Z,14.30
2018-03-21T04:45:10.805Z,14.30
2018-03-21T04:45:42.552Z,14.40
2018-03-21T04:46:14.491Z,14.40
2018-03-21T04:46:46.232Z,14.30
2018-03-21T04:47:17.985Z,14.40
2018-03-21T04:47:49.711Z,14.40
2018-03-21T04:48:21.449Z,14.40
2018-03-21T04:48:53.199Z,14.40
2018-03-21T04:49:24.940Z,14.40
2018-03-21T04:49:56.680Z,14.40
2018-03-21T04:50:28.428Z,14.40
2018-03-21T04:51:00.368Z,14.40
2018-03-21T04:51:32.117Z,14.50
2018-03-21T04:52:03.879Z,14.50
2018-03-21T04:52:35.621Z,14.50
2018-03-21T04:53:07.404Z,14.50
2018-03-21T04:53:39.174Z,14.40
2018-03-21T04:54:11.691Z,14.40
2018-03-21T04:54:43.433Z,14.30
2018-03-21T04:55:15.194Z,14.40
2018-03-21T04:55:46.941Z,14.30
2018-03-21T04:56:18.677Z,14.30
2018-03-21T04:56:50.437Z,14.40
2018-03-21T04:57:22.181Z,14.40
2018-03-21T04:57:53.921Z,14.40
2018-03-21T04:58:25.677Z,14.40
2018-03-21T04:58:57.416Z,14.40
2018-03-21T04:59:29.152Z,14.40
2018-03-21T05:00:01.067Z,14.40
2018-03-21T05:00:33.586Z,14.40
2018-03-21T05:01:06.090Z,14.40
2018-03-21T05:01:37.883Z,14.40
2018-03-21T05:02:09.636Z,14.40
2018-03-21T05:02:41.377Z,14.40
2018-03-21T05:03:13.136Z,14.40
2018-03-21T05:03:45.661Z,14.40
2018-03-21T05:04:17.447Z,14.40
2018-03-21T05:04:49.960Z,14.40
2018-03-21T05:05:21.707Z,14.40
2018-03-21T05:05:53.480Z,14.40
2018-03-21T05:06:25.436Z,14.40
2018-03-21T05:06:57.191Z,14.50
2018-03-21T05:07:28.944Z,14.50
2018-03-21T05:08:00.696Z,14.40
2018-03-21T05:08:32.645Z,14.40
2018-03-21T05:09:04.384Z,14.40
2018-03-21T05:09:36.128Z,14.50
2018-03-21T05:10:07.907Z,14.50
2018-03-21T05:10:40.420Z,14.50
2018-03-21T05:11:12.178Z,14.50
2018-03-21T05:11:43.912Z,14.50
2018-03-21T05:12:15.653Z,14.50
2018-03-21T05:12:47.431Z,14.50
2018-03-21T05:13:19.950Z,14.50
2018-03-21T05:13:51.701Z,14.50
2018-03-21T05:14:23.448Z,14.50
2018-03-21T05:14:55.197Z,14.50
2018-03-21T05:15:26.941Z,14.50
2018-03-21T05:15:58.721Z,14.50
2018-03-21T05:16:31.237Z,14.50
2018-03-21T05:17:03.004Z,14.50
2018-03-21T05:17:34.758Z,14.50
2018-03-21T05:18:06.547Z,14.50
2018-03-21T05:18:38.459Z,14.50
2018-03-21T05:19:10.193Z,14.50
2018-03-21T05:19:41.937Z,14.40
2018-03-21T05:20:13.691Z,14.40
2018-03-21T05:20:45.416Z,14.40
2018-03-21T05:21:17.157Z,14.40
2018-03-21T05:21:48.908Z,14.40
2018-03-21T05:22:20.656Z,14.40
2018-03-21T05:22:52.566Z,14.40
2018-03-21T05:23:25.048Z,14.40
2018-03-21T05:23:56.996Z,14.40
2018-03-21T05:24:28.776Z,14.40
2018-03-21T05:25:00.501Z,14.40
2018-03-21T05:25:32.252Z,14.50
2018-03-21T05:26:04.029Z,14.50
2018-03-21T05:26:35.753Z,14.40
2018-03-21T05:27:07.486Z,14.40
2018-03-21T05:27:39.221Z,14.40
2018-03-21T05:28:10.971Z,14.40
2018-03-21T05:28:42.718Z,14.40
2018-03-21T05:29:14.457Z,14.40
2018-03-21T05:29:46.214Z,14.40
2018-03-21T05:30:17.964Z,14.40
2018-03-21T05:30:50.505Z,14.50
2018-03-21T05:31:22.231Z,14.40
2018-03-21T05:31:53.976Z,14.40
2018-03-21T05:32:25.731Z,14.30
2018-03-21T05:32:57.498Z,14.20
2018-03-21T05:33:29.240Z,14.10
2018-03-21T05:34:00.988Z,14.00
2018-03-21T05:34:32.733Z,13.90
2018-03-21T05:35:04.481Z,13.80
2018-03-21T05:35:36.226Z,13.70
2018-03-21T05:36:07.968Z,13.60
2018-03-21T05:36:39.766Z,13.60
2018-03-21T05:37:11.492Z,13.60
2018-03-21T05:37:43.311Z,13.50
2018-03-21T05:38:15.839Z,13.40
2018-03-21T05:38:47.624Z,13.40
2018-03-21T05:39:20.151Z,13.40
2018-03-21T05:39:51.900Z,13.30
2018-03-21T05:40:23.644Z,13.40
2018-03-21T05:40:55.387Z,13.30
2018-03-21T05:41:27.156Z,13.30
2018-03-21T05:41:58.877Z,13.30
2018-03-21T05:42:30.627Z,13.30
2018-03-21T05:43:02.360Z,13.30
2018-03-21T05:43:34.115Z,13.30
2018-03-21T05:44:05.865Z,13.30
2018-03-21T05:44:37.688Z,13.30
2018-03-21T05:45:09.442Z,13.30
2018-03-21T05:45:41.188Z,13.20
2018-03-21T05:46:12.952Z,13.20
2018-03-21T05:46:44.701Z,13.20
2018-03-21T05:47:16.432Z,13.20
2018-03-21T05:47:48.168Z,13.20
2018-03-21T05:48:19.904Z,13.10
2018-03-21T05:48:51.648Z,13.10
2018-03-21T05:49:23.403Z,13.10
2018-03-21T05:49:55.177Z,13.10
2018-03-21T05:50:27.712Z,13.00
2018-03-21T05:50:59.478Z,13.00
2018-03-21T05:51:31.214Z,13.00
2018-03-21T05:52:02.955Z,13.00
2018-03-21T05:52:34.734Z,13.10
2018-03-21T05:53:07.240Z,13.00
2018-03-21T05:53:38.999Z,13.00
2018-03-21T05:54:10.764Z,13.00
2018-03-21T05:54:42.531Z,13.00
2018-03-21T05:55:14.301Z,13.00
2018-03-21T05:55:46.048Z,13.00
2018-03-21T05:56:17.813Z,13.00
2018-03-21T05:56:49.578Z,13.00
2018-03-21T05:57:21.578Z,13.00
2018-03-21T05:57:53.360Z,12.90
2018-03-21T05:58:25.472Z,12.90
2018-03-21T05:58:57.231Z,12.90
2018-03-21T05:59:28.998Z,12.90
2018-03-21T06:00:00.733Z,12.90
2018-03-21T06:00:32.493Z,12.90
2018-03-21T06:01:04.288Z,12.90
2018-03-21T06:01:36.034Z,12.90
2018-03-21T06:02:07.775Z,12.90
2018-03-21T06:02:39.548Z,12.80
2018-03-21T06:03:11.316Z,12.90
2018-03-21T06:03:43.072Z,12.80
2018-03-21T06:04:14.847Z,12.90
2018-03-21T06:04:46.793Z,12.90
2018-03-21T06:05:19.301Z,13.10
2018-03-21T06:05:51.060Z,13.10
2018-03-21T06:06:22.809Z,13.30
2018-03-21T06:06:54.556Z,13.50
2018-03-21T06:07:26.304Z,13.50
2018-03-21T06:07:58.061Z,13.40
2018-03-21T06:08:29.848Z,13.40
2018-03-21T06:09:01.586Z,13.30
2018-03-21T06:09:33.337Z,13.30
2018-03-21T06:10:05.090Z,13.20
2018-03-21T06:10:36.827Z,13.20
2018-03-21T06:11:08.570Z,13.10
2018-03-21T06:11:40.312Z,13.10
2018-03-21T06:12:12.040Z,13.10
2018-03-21T06:12:43.784Z,13.00
2018-03-21T06:13:15.529Z,13.00
2018-03-21T06:13:47.268Z,13.00
2018-03-21T06:14:19.020Z,13.10
2018-03-21T06:14:50.758Z,13.10
2018-03-21T06:15:22.500Z,13.20
2018-03-21T06:15:55.025Z,13.10
2018-03-21T06:16:26.768Z,13.10
2018-03-21T06:16:58.517Z,13.10
2018-03-21T06:17:30.279Z,13.20
2018-03-21T06:18:02.034Z,13.30
2018-03-21T06:18:33.971Z,13.50
2018-03-21T06:19:05.709Z,13.60
2018-03-21T06:19:38.220Z,13.80
2018-03-21T06:20:09.976Z,13.70
2018-03-21T06:20:41.727Z,13.80
2018-03-21T06:21:13.472Z,13.80
2018-03-21T06:21:45.225Z,13.80
2018-03-21T06:22:16.963Z,13.80
2018-03-21T06:22:48.708Z,13.80
2018-03-21T06:23:20.454Z,13.80
2018-03-21T06:23:52.207Z,13.90
2018-03-21T06:24:23.941Z,14.00
2018-03-21T06:24:55.695Z,14.00
2018-03-21T06:25:27.433Z,14.00
2018-03-21T06:25:59.185Z,14.00
2018-03-21T06:26:30.933Z,14.00
2018-03-21T06:27:03.450Z,14.00
2018-03-21T06:27:35.252Z,14.00
2018-03-21T06:28:06.992Z,14.00
2018-03-21T06:28:38.728Z,14.00
2018-03-21T06:29:10.459Z,14.00
2018-03-21T06:29:42.195Z,14.00
2018-03-21T06:30:13.936Z,14.00
2018-03-21T06:30:45.681Z,14.00
2018-03-21T06:31:17.448Z,14.00
2018-03-21T06:31:49.198Z,14.00
2018-03-21T06:32:20.938Z,14.10
2018-03-21T06:32:52.690Z,14.10
2018-03-21T06:33:24.556Z,14.20
2018-03-21T06:33:57.088Z,14.20
2018-03-21T06:34:28.833Z,14.20
2018-03-21T06:35:00.568Z,14.20
2018-03-21T06:35:32.316Z,14.20
2018-03-21T06:36:04.083Z,14.20
2018-03-21T06:36:35.882Z,14.20
2018-03-21T06:37:07.649Z,14.20
2018-03-21T06:37:39.408Z,14.20
2018-03-21T06:38:11.148Z,14.20
2018-03-21T06:38:42.905Z,14.20
2018-03-21T06:39:14.657Z,14.20
2018-03-21T06:39:46.398Z,14.20
2018-03-21T06:40:18.141Z,14.20
2018-03-21T06:40:49.888Z,14.20
2018-03-21T06:41:21.625Z,14.10
2018-03-21T06:41:53.379Z,14.10
2018-03-21T06:42:25.134Z,14.10
2018-03-21T06:42:56.868Z,14.10
2018-03-21T06:43:28.611Z,14.10
2018-03-21T06:44:00.361Z,14.00
2018-03-21T06:44:32.123Z,14.10
2018-03-21T06:45:04.643Z,14.10
2018-03-21T06:45:36.386Z,14.00
2018-03-21T06:46:08.187Z,14.00
2018-03-21T06:46:39.954Z,14.10
2018-03-21T06:47:11.724Z,14.10
2018-03-21T06:47:43.461Z,14.20
2018-03-21T06:48:15.242Z,14.20
2018-03-21T06:48:47.747Z,14.20
2018-03-21T06:49:19.509Z,14.10
2018-03-21T06:49:51.486Z,14.20
2018-03-21T06:50:23.229Z,14.10